createdAt,value
2023-03-29T00:01:00.776Z,48.98
2023-03-29T00:02:05.233Z,49.12
2023-03-29T00:03:13.162Z,48.91
2023-03-29T00:04:19.896Z,48.87
2023-03-29T00:05:28.902Z,49.37
2023-03-29T00:06:51.643Z,49.28
2023-03-29T00:08:02.367Z,49.77
2023-03-29T00:09:06.352Z,49.58
2023-03-29T00:10:15.064Z,49.69
2023-03-29T00:11:23.576Z,49.54
2023-03-29T00:12:28.679Z,49.72
2023-03-29T00:13:33.559Z,49.86
2023-03-29T00:14:43.464Z,49.69
2023-03-29T00:15:47.459Z,49.87
2023-03-29T00:16:51.411Z,49.91
2023-03-29T00:18:00.034Z,49.91
2023-03-29T00:19:23.724Z,49.82
2023-03-29T00:20:32.092Z,49.68
2023-03-29T00:21:45.505Z,49.79
2023-03-29T00:22:55.520Z,49.80
2023-03-29T00:24:07.572Z,49.75
2023-03-29T00:25:14.285Z,49.69
2023-03-29T00:26:35.458Z,49.96
2023-03-29T00:27:45.051Z,49.94
2023-03-29T00:29:01.284Z,49.82
2023-03-29T00:30:21.356Z,49.75
2023-03-29T00:31:29.285Z,50.24
2023-03-29T00:32:50.120Z,50.42
2023-03-29T00:33:55.421Z,50.20
2023-03-29T00:35:12.090Z,50.50
2023-03-29T00:36:20.868Z,50.60
2023-03-29T00:37:27.171Z,50.48
2023-03-29T00:38:38.209Z,50.31
2023-03-29T00:39:49.629Z,50.44
2023-03-29T00:41:07.958Z,50.47
2023-03-29T00:42:20.916Z,50.48
2023-03-29T00:43:36.183Z,50.58
2023-03-29T00:45:22.003Z,50.86
2023-03-29T00:46:32.296Z,50.69
2023-03-29T00:47:47.828Z,50.73
2023-03-29T00:49:21.420Z,50.79
2023-03-29T00:50:43.278Z,50.98
2023-03-29T00:51:48.261Z,50.80
2023-03-29T00:53:06.862Z,50.93
2023-03-29T00:54:21.619Z,50.75
2023-03-29T00:55:38.884Z,50.93
2023-03-29T00:56:51.801Z,50.94
2023-03-29T00:58:01.680Z,50.93
2023-03-29T00:59:18.877Z,51.22
2023-03-29T01:00:34.944Z,51.23
2023-03-29T01:01:57.398Z,51.17
2023-03-29T01:03:09.109Z,51.19
2023-03-29T01:04:36.533Z,51.09
2023-03-29T01:05:46.631Z,51.33
2023-03-29T01:07:18.823Z,51.14
2023-03-29T01:08:32.830Z,51.40
2023-03-29T01:09:42.061Z,51.35
2023-03-29T01:11:04.748Z,51.41
2023-03-29T01:12:24.686Z,51.34
2023-03-29T01:13:49.695Z,51.79
2023-03-29T01:15:14.301Z,51.93
2023-03-29T01:16:22.425Z,52.32
2023-03-29T01:17:27.168Z,52.09
2023-03-29T01:18:34.440Z,51.81
2023-03-29T01:19:53.926Z,51.65
2023-03-29T01:21:22.836Z,51.76
2023-03-29T01:22:53.493Z,51.71
2023-03-29T01:24:25.357Z,51.55
2023-03-29T01:26:26.390Z,51.57
2023-03-29T01:29:32.120Z,51.66
2023-03-29T01:30:54.880Z,51.91
2023-03-29T01:32:11.905Z,51.96
2023-03-29T01:33:27.058Z,52.07
2023-03-29T01:34:49.880Z,52.04
2023-03-29T01:36:32.547Z,52.00
2023-03-29T01:37:57.955Z,51.89
2023-03-29T01:39:10.107Z,51.92
2023-03-29T01:40:15.830Z,51.78
2023-03-29T01:41:41.391Z,51.86
2023-03-29T01:43:32.662Z,52.02
2023-03-29T01:45:12.839Z,51.66
2023-03-29T01:46:42.125Z,51.75
2023-03-29T01:48:27.570Z,51.97
2023-03-29T01:49:46.553Z,51.83
2023-03-29T01:50:56.345Z,51.61
2023-03-29T01:52:30.492Z,51.69
2023-03-29T01:53:56.635Z,51.78
2023-03-29T01:55:21.835Z,51.96
2023-03-29T01:56:42.567Z,52.16
2023-03-29T01:57:57.132Z,51.91
2023-03-29T01:59:10.152Z,52.00
2023-03-29T02:00:25.180Z,51.94
2023-03-29T02:01:38.780Z,51.80
2023-03-29T02:02:46.427Z,52.03
2023-03-29T02:04:00.527Z,52.12
2023-03-29T02:05:11.981Z,52.29
2023-03-29T02:06:30.744Z,52.89
2023-03-29T02:07:44.441Z,52.87
2023-03-29T02:08:56.148Z,52.91
2023-03-29T02:10:02.526Z,53.04
2023-03-29T02:11:18.742Z,53.15
2023-03-29T02:12:25.896Z,53.16
2023-03-29T02:13:45.265Z,53.48
2023-03-29T02:14:51.212Z,53.44
2023-03-29T02:16:04.519Z,53.68
2023-03-29T02:17:27.129Z,53.52
2023-03-29T02:18:49.117Z,53.85
2023-03-29T02:20:14.432Z,54.03
2023-03-29T02:21:52.137Z,54.40
2023-03-29T02:23:15.252Z,54.41
2023-03-29T02:24:30.953Z,54.18
2023-03-29T02:25:38.151Z,54.15
2023-03-29T02:26:41.815Z,54.40
2023-03-29T02:27:51.171Z,54.37
2023-03-29T02:28:59.362Z,54.45
2023-03-29T02:30:08.191Z,54.35
2023-03-29T02:31:34.112Z,54.52
2023-03-29T02:33:05.908Z,54.82
2023-03-29T02:34:59.228Z,54.34
2023-03-29T02:36:40.934Z,54.73
2023-03-29T02:37:56.230Z,54.62
2023-03-29T02:39:07.486Z,54.54
2023-03-29T02:40:16.383Z,54.15
2023-03-29T02:41:26.678Z,54.21
2023-03-29T02:42:36.774Z,53.91
2023-03-29T02:43:48.537Z,53.96
2023-03-29T02:45:05.144Z,54.24
2023-03-29T02:46:20.398Z,54.14
2023-03-29T02:47:40.790Z,54.38
2023-03-29T02:48:59.778Z,54.63
2023-03-29T02:50:07.029Z,54.39
2023-03-29T02:51:22.461Z,54.78
2023-03-29T02:52:37.327Z,54.71
2023-03-29T02:54:16.321Z,55.24
2023-03-29T02:55:24.820Z,54.86
2023-03-29T02:56:28.890Z,55.17
2023-03-29T02:57:32.784Z,54.98
2023-03-29T02:58:37.030Z,55.24
2023-03-29T02:59:44.068Z,55.18
2023-03-29T03:00:49.540Z,55.23
2023-03-29T03:01:55.681Z,55.41
2023-03-29T03:03:01.899Z,55.42
2023-03-29T03:04:06.101Z,55.40
2023-03-29T03:05:10.167Z,55.31
2023-03-29T03:06:14.096Z,55.60
2023-03-29T03:07:26.043Z,55.42
2023-03-29T03:08:43.834Z,55.22
2023-03-29T03:09:57.072Z,55.52
2023-03-29T03:11:08.817Z,55.62
2023-03-29T03:12:16.387Z,55.96
2023-03-29T03:13:27.988Z,55.87
2023-03-29T03:14:38.354Z,56.11
2023-03-29T03:15:43.149Z,56.06
2023-03-29T03:16:50.032Z,56.13
2023-03-29T03:17:54.948Z,56.08
2023-03-29T03:18:59.336Z,55.77
2023-03-29T03:20:05.154Z,55.84
2023-03-29T03:21:09.797Z,56.02
2023-03-29T03:22:16.786Z,56.19
2023-03-29T03:23:20.521Z,56.12
2023-03-29T03:24:24.671Z,56.48
2023-03-29T03:25:28.885Z,56.33
2023-03-29T03:26:32.744Z,56.55
2023-03-29T03:27:38.079Z,56.65
2023-03-29T03:28:42.568Z,56.82
2023-03-29T03:29:46.393Z,56.59
2023-03-29T03:30:51.113Z,56.80
2023-03-29T03:31:55.848Z,56.80
2023-03-29T03:32:59.611Z,56.76
2023-03-29T03:34:03.492Z,56.88
2023-03-29T03:35:07.760Z,57.11
2023-03-29T03:36:11.989Z,57.10
2023-03-29T03:37:16.128Z,56.94
2023-03-29T03:38:20.486Z,57.02
2023-03-29T03:39:24.269Z,57.13
2023-03-29T03:40:28.485Z,57.22
2023-03-29T03:41:33.006Z,57.54
2023-03-29T03:42:37.084Z,57.36
2023-03-29T03:43:43.115Z,57.54
2023-03-29T03:44:47.858Z,57.37
2023-03-29T03:45:52.175Z,57.25
2023-03-29T03:46:56.545Z,57.43
2023-03-29T03:48:00.853Z,57.43
2023-03-29T03:49:06.008Z,57.54
2023-03-29T03:50:11.820Z,57.50
2023-03-29T03:51:15.765Z,57.61
2023-03-29T03:52:19.913Z,57.81
2023-03-29T03:53:25.499Z,57.82
2023-03-29T03:54:29.439Z,57.65
2023-03-29T03:55:33.882Z,57.65
2023-03-29T03:56:37.865Z,57.89
2023-03-29T03:57:41.906Z,58.20
2023-03-29T03:58:45.891Z,58.04
2023-03-29T03:59:49.707Z,58.29
2023-03-29T04:00:53.569Z,58.32
2023-03-29T04:01:58.548Z,58.56
2023-03-29T04:03:06.134Z,58.34
2023-03-29T04:04:11.666Z,58.42
2023-03-29T04:05:17.217Z,58.47
2023-03-29T04:06:21.079Z,58.56
2023-03-29T04:07:25.536Z,58.83
2023-03-29T04:08:29.435Z,58.77
2023-03-29T04:09:34.325Z,58.88
2023-03-29T04:10:39.862Z,58.99
2023-03-29T04:11:45.377Z,59.07
2023-03-29T04:12:49.279Z,59.00
2023-03-29T04:13:53.131Z,59.15
2023-03-29T04:14:57.368Z,59.19
2023-03-29T04:16:01.855Z,59.30
2023-03-29T04:17:05.858Z,59.40
2023-03-29T04:18:09.777Z,59.37
2023-03-29T04:19:14.648Z,59.35
2023-03-29T04:20:18.887Z,59.46
2023-03-29T04:21:23.282Z,59.59
2023-03-29T04:22:27.173Z,59.65
2023-03-29T04:23:31.218Z,59.52
2023-03-29T04:24:35.004Z,59.94
2023-03-29T04:25:38.873Z,59.73
2023-03-29T04:26:43.587Z,59.55
2023-03-29T04:27:49.289Z,60.04
2023-03-29T04:28:53.730Z,60.02
2023-03-29T04:29:59.750Z,60.31
2023-03-29T04:31:09.678Z,60.35
2023-03-29T04:32:13.388Z,60.54
2023-03-29T04:33:17.452Z,60.92
2023-03-29T04:34:21.679Z,61.02
2023-03-29T04:35:26.420Z,61.13
2023-03-29T04:36:30.240Z,61.24
2023-03-29T04:37:34.215Z,61.16
2023-03-29T04:38:38.130Z,61.53
2023-03-29T04:39:42.711Z,61.25
2023-03-29T04:40:46.338Z,61.62
2023-03-29T04:41:50.063Z,61.70
2023-03-29T04:42:54.520Z,61.86
2023-03-29T04:43:58.248Z,61.58
2023-03-29T04:45:02.102Z,61.98
2023-03-29T04:46:09.942Z,61.73
2023-03-29T04:47:14.278Z,61.64
2023-03-29T04:48:18.404Z,62.09
2023-03-29T04:49:24.596Z,62.22
2023-03-29T04:50:30.031Z,61.98
2023-03-29T04:51:34.228Z,62.58
2023-03-29T04:52:38.769Z,62.33
2023-03-29T04:53:42.664Z,62.62
2023-03-29T04:54:46.314Z,62.36
2023-03-29T04:55:50.579Z,62.24
2023-03-29T04:56:54.514Z,62.33
2023-03-29T04:58:01.298Z,62.29
2023-03-29T04:59:05.468Z,63.22
2023-03-29T05:00:15.317Z,62.62
2023-03-29T05:01:19.655Z,62.67
2023-03-29T05:02:24.022Z,63.08
2023-03-29T05:03:27.857Z,62.85
2023-03-29T05:04:33.169Z,63.12
2023-03-29T05:05:37.172Z,63.10
2023-03-29T05:06:42.087Z,62.78
2023-03-29T05:07:46.150Z,62.86
2023-03-29T05:08:50.150Z,62.61
2023-03-29T05:09:54.576Z,62.79
2023-03-29T05:10:59.010Z,63.06
2023-03-29T05:12:03.895Z,62.86
2023-03-29T05:13:07.849Z,62.77
2023-03-29T05:14:12.104Z,62.84
2023-03-29T05:15:17.059Z,62.57
2023-03-29T05:16:20.895Z,62.40
2023-03-29T05:17:27.134Z,62.48
2023-03-29T05:18:31.977Z,62.39
2023-03-29T05:19:37.575Z,62.18
2023-03-29T05:20:42.404Z,62.32
2023-03-29T05:21:46.421Z,62.31
2023-03-29T05:22:50.421Z,61.79
2023-03-29T05:23:55.847Z,61.73
2023-03-29T05:24:59.651Z,61.45
2023-03-29T05:26:04.714Z,61.07
2023-03-29T05:27:08.491Z,60.67
2023-03-29T05:28:12.146Z,60.23
2023-03-29T05:29:15.808Z,59.49
2023-03-29T05:30:20.963Z,59.39
2023-03-29T05:31:24.966Z,58.93
2023-03-29T05:32:29.497Z,58.51
2023-03-29T05:33:34.809Z,58.24
2023-03-29T05:34:39.391Z,57.95
2023-03-29T05:35:43.832Z,57.51
2023-03-29T05:36:49.527Z,56.99
2023-03-29T05:37:53.929Z,56.49
2023-03-29T05:38:58.030Z,56.44
2023-03-29T05:40:06.133Z,55.24
2023-03-29T05:41:11.084Z,55.43
2023-03-29T05:42:16.656Z,55.07
2023-03-29T05:43:21.278Z,54.75
2023-03-29T05:44:25.109Z,54.51
2023-03-29T05:45:29.930Z,54.00
2023-03-29T05:46:34.298Z,53.64
2023-03-29T05:47:38.398Z,53.65
2023-03-29T05:48:42.440Z,53.22
2023-03-29T05:49:46.714Z,53.11
2023-03-29T05:50:54.028Z,52.88
2023-03-29T05:51:58.835Z,52.57
2023-03-29T05:53:03.866Z,52.20
2023-03-29T05:54:08.976Z,52.09
2023-03-29T05:55:16.055Z,51.57
2023-03-29T05:56:20.902Z,51.09
2023-03-29T05:57:24.935Z,50.43
2023-03-29T05:58:29.190Z,50.25
2023-03-29T05:59:34.012Z,49.75
2023-03-29T06:00:40.173Z,49.15
2023-03-29T06:01:47.081Z,47.56
2023-03-29T06:03:03.759Z,48.19
2023-03-29T06:04:15.742Z,47.65
2023-03-29T06:05:20.659Z,47.35
2023-03-29T06:06:24.301Z,46.32
2023-03-29T06:07:28.664Z,46.11
2023-03-29T06:08:35.130Z,46.23
2023-03-29T06:09:40.037Z,45.99
2023-03-29T06:10:44.017Z,44.52
2023-03-29T06:11:48.117Z,45.19
2023-03-29T06:12:53.003Z,44.72
2023-03-29T06:13:57.860Z,45.13
2023-03-29T06:15:05.084Z,44.57
2023-03-29T06:16:11.120Z,44.47
2023-03-29T06:17:21.189Z,43.91
2023-03-29T06:18:31.786Z,43.15
2023-03-29T06:19:41.833Z,42.62
2023-03-29T06:20:57.247Z,42.35
2023-03-29T06:22:07.407Z,41.16
2023-03-29T06:23:17.593Z,41.16
2023-03-29T06:24:25.855Z,40.79
2023-03-29T06:25:34.253Z,40.10
2023-03-29T06:26:38.100Z,40.47
2023-03-29T06:27:41.960Z,39.92
2023-03-29T06:28:45.691Z,39.97
2023-03-29T06:29:49.371Z,39.29
2023-03-29T06:30:56.652Z,38.88
2023-03-29T06:32:00.626Z,38.56
2023-03-29T06:33:07.150Z,38.59
2023-03-29T06:34:10.801Z,37.99
2023-03-29T06:35:15.438Z,38.46
2023-03-29T06:36:20.330Z,38.02
2023-03-29T06:37:24.095Z,36.33
2023-03-29T06:38:28.770Z,36.29
2023-03-29T06:39:33.189Z,35.01
2023-03-29T06:40:39.349Z,36.00
2023-03-29T06:41:43.961Z,35.20
2023-03-29T06:42:51.808Z,34.97
2023-03-29T06:43:58.455Z,34.14
2023-03-29T06:45:04.102Z,34.60
2023-03-29T06:46:12.873Z,34.18
2023-03-29T06:47:17.771Z,33.46
2023-03-29T06:48:21.711Z,32.84
2023-03-29T06:49:26.570Z,33.32
2023-03-29T06:50:31.785Z,32.71
2023-03-29T06:51:36.174Z,32.26
2023-03-29T06:52:39.956Z,31.73
2023-03-29T06:53:44.028Z,31.39
2023-03-29T06:54:48.317Z,31.21
2023-03-29T06:55:52.608Z,30.58
2023-03-29T06:56:57.602Z,30.77
2023-03-29T06:58:02.859Z,30.14
2023-03-29T06:59:07.085Z,30.33
2023-03-29T07:00:18.215Z,29.73
2023-03-29T07:01:21.931Z,29.54
2023-03-29T07:02:25.919Z,28.58
2023-03-29T07:03:30.172Z,29.11
2023-03-29T07:04:35.676Z,28.84
2023-03-29T07:05:42.438Z,28.34
2023-03-29T07:06:48.617Z,28.68
2023-03-29T07:08:11.365Z,28.50
2023-03-29T07:09:19.397Z,27.88
2023-03-29T07:10:28.731Z,28.28
2023-03-29T07:11:36.996Z,27.98
2023-03-29T07:12:41.066Z,28.15
2023-03-29T07:13:46.312Z,28.32
2023-03-29T07:14:50.489Z,27.30
2023-03-29T07:15:54.492Z,27.00
2023-03-29T07:16:59.027Z,26.85
2023-03-29T07:18:05.107Z,27.43
2023-03-29T07:19:09.561Z,26.72
2023-03-29T07:20:14.723Z,26.24
2023-03-29T07:21:18.915Z,25.78
2023-03-29T07:22:22.916Z,25.54
2023-03-29T07:23:26.736Z,25.26
2023-03-29T07:24:30.884Z,25.01
2023-03-29T07:25:34.860Z,24.56
2023-03-29T07:26:46.306Z,24.16
2023-03-29T07:27:56.873Z,24.14
2023-03-29T07:29:01.159Z,24.95
2023-03-29T07:30:11.206Z,24.04
2023-03-29T07:31:15.607Z,24.23
2023-03-29T07:32:19.603Z,23.94
2023-03-29T07:33:24.433Z,24.26
2023-03-29T07:34:32.817Z,23.66
2023-03-29T07:35:38.404Z,23.47
2023-03-29T07:36:43.927Z,23.19
2023-03-29T07:37:47.940Z,22.69
2023-03-29T07:38:52.899Z,22.55
2023-03-29T07:40:00.494Z,21.98
2023-03-29T07:41:08.317Z,22.19
2023-03-29T07:42:13.309Z,22.23
2023-03-29T07:43:18.462Z,22.02
2023-03-29T07:44:24.431Z,21.70
2023-03-29T07:45:29.247Z,22.07
2023-03-29T07:46:33.069Z,21.98
2023-03-29T07:47:37.076Z,21.90
2023-03-29T07:48:41.588Z,21.65
2023-03-29T07:49:45.422Z,21.61
2023-03-29T07:50:49.416Z,21.11
2023-03-29T07:51:55.165Z,20.28
2023-03-29T07:53:00.952Z,20.41
2023-03-29T07:54:06.650Z,20.38
2023-03-29T07:55:13.411Z,20.72
2023-03-29T07:56:17.256Z,20.41
2023-03-29T07:57:25.381Z,19.97
2023-03-29T07:58:29.790Z,20.03
2023-03-29T07:59:34.153Z,18.92
2023-03-29T08:00:40.151Z,19.05
2023-03-29T08:01:46.089Z,19.27
2023-03-29T08:02:52.613Z,19.03
2023-03-29T08:03:56.352Z,19.09
2023-03-29T08:05:00.636Z,18.58
2023-03-29T08:06:05.265Z,18.62
2023-03-29T08:07:09.104Z,18.70
2023-03-29T08:08:14.359Z,18.41
2023-03-29T08:09:18.098Z,18.31
2023-03-29T08:10:23.157Z,18.19
2023-03-29T08:11:27.679Z,18.30
2023-03-29T08:12:31.680Z,17.94
2023-03-29T08:13:36.123Z,17.87
2023-03-29T08:14:39.949Z,17.85
2023-03-29T08:15:48.854Z,18.08
2023-03-29T08:16:52.643Z,18.24
2023-03-29T08:17:56.510Z,18.31
2023-03-29T08:19:00.280Z,17.66
2023-03-29T08:20:06.634Z,17.32
2023-03-29T08:21:11.132Z,17.36
2023-03-29T08:22:15.018Z,17.66
2023-03-29T08:23:19.550Z,17.41
2023-03-29T08:24:23.600Z,17.43
2023-03-29T08:25:27.694Z,16.97
2023-03-29T08:26:31.820Z,16.91
2023-03-29T08:27:37.966Z,16.83
2023-03-29T08:28:43.083Z,16.92
2023-03-29T08:29:47.088Z,17.09
2023-03-29T08:30:51.269Z,17.27
2023-03-29T08:31:56.694Z,16.73
2023-03-29T08:33:01.048Z,16.85
2023-03-29T08:34:04.945Z,15.97
2023-03-29T08:35:09.802Z,15.77
2023-03-29T08:36:13.924Z,15.88
2023-03-29T08:37:20.125Z,16.07
2023-03-29T08:38:24.066Z,16.07
2023-03-29T08:39:28.484Z,16.19
2023-03-29T08:40:32.746Z,15.91
2023-03-29T08:42:25.238Z,15.89
2023-03-29T08:43:44.645Z,16.35
2023-03-29T08:45:16.337Z,16.35
2023-03-29T08:46:35.472Z,16.25
2023-03-29T08:47:58.677Z,16.27
2023-03-29T08:49:08.077Z,16.38
2023-03-29T08:50:14.081Z,16.73
2023-03-29T08:51:36.780Z,16.46
2023-03-29T08:53:00.685Z,16.59
2023-03-29T08:54:18.983Z,16.25
2023-03-29T08:55:59.035Z,16.22
2023-03-29T08:57:21.190Z,16.30
2023-03-29T08:58:33.249Z,16.01
2023-03-29T08:59:38.960Z,15.81
2023-03-29T09:00:53.079Z,15.59
2023-03-29T09:02:00.496Z,15.64
2023-03-29T09:03:19.745Z,15.55
2023-03-29T09:04:37.821Z,15.14
2023-03-29T09:05:52.580Z,15.45
2023-03-29T09:06:56.533Z,15.71
2023-03-29T09:08:02.759Z,15.27
2023-03-29T09:09:29.174Z,15.25
2023-03-29T09:11:04.160Z,15.23
2023-03-29T09:12:54.821Z,15.23
2023-03-29T09:14:23.670Z,15.51
2023-03-29T09:16:09.370Z,16.09
2023-03-29T09:17:54.522Z,16.44
2023-03-29T09:19:45.854Z,18.45
2023-03-29T09:21:20.350Z,18.97
2023-03-29T09:22:50.807Z,19.74
2023-03-29T09:24:34.131Z,19.80
2023-03-29T09:25:56.078Z,20.38
2023-03-29T09:27:16.078Z,20.92
2023-03-29T09:28:44.797Z,21.04
2023-03-29T09:30:29.144Z,21.43
2023-03-29T09:31:48.725Z,21.83
2023-03-29T09:33:12.441Z,21.93
2023-03-29T09:34:50.714Z,22.31
2023-03-29T09:36:12.286Z,22.44
2023-03-29T09:37:37.398Z,23.01
2023-03-29T09:38:48.183Z,22.51
2023-03-29T09:39:55.973Z,22.53
2023-03-29T09:41:33.456Z,23.00
2023-03-29T09:42:46.802Z,22.79
2023-03-29T09:43:56.037Z,23.14
2023-03-29T09:45:13.103Z,22.73
2023-03-29T09:46:57.175Z,22.78
2023-03-29T09:48:15.163Z,23.11
2023-03-29T09:49:28.955Z,23.96
2023-03-29T09:50:43.424Z,24.76
2023-03-29T09:51:50.352Z,25.17
2023-03-29T09:52:55.306Z,25.04
2023-03-29T09:54:01.831Z,25.88
2023-03-29T09:55:16.318Z,25.99
2023-03-29T09:56:20.327Z,26.25
2023-03-29T09:57:24.052Z,26.43
2023-03-29T09:58:33.158Z,26.13
2023-03-29T09:59:37.079Z,26.68
2023-03-29T10:00:41.533Z,26.60
2023-03-29T10:01:45.940Z,26.36
2023-03-29T10:02:57.158Z,26.45
2023-03-29T10:04:01.662Z,27.59
2023-03-29T10:05:16.048Z,28.11
2023-03-29T10:06:24.649Z,27.66
2023-03-29T10:07:46.441Z,27.51
2023-03-29T10:08:59.091Z,27.05
2023-03-29T10:10:03.269Z,27.11
2023-03-29T10:11:22.186Z,26.83
2023-03-29T10:12:28.049Z,27.22
2023-03-29T10:13:37.022Z,27.30
2023-03-29T10:14:53.586Z,27.25
2023-03-29T10:16:08.078Z,27.78
2023-03-29T10:17:15.793Z,31.41
2023-03-29T10:18:19.866Z,29.64
2023-03-29T10:19:35.970Z,28.63
2023-03-29T10:20:41.588Z,29.75
2023-03-29T10:21:49.175Z,30.57
2023-03-29T10:22:59.332Z,30.69
2023-03-29T10:24:03.512Z,29.62
2023-03-29T10:25:17.245Z,30.27
2023-03-29T10:26:32.899Z,29.72
2023-03-29T10:27:37.163Z,30.27
2023-03-29T10:28:41.861Z,30.24
2023-03-29T10:29:46.300Z,31.13
2023-03-29T10:30:56.656Z,29.86
2023-03-29T10:32:00.417Z,31.17
2023-03-29T10:33:07.029Z,28.83
2023-03-29T10:34:16.930Z,28.82
2023-03-29T10:35:42.233Z,30.18
2023-03-29T10:37:01.556Z,29.34
2023-03-29T10:38:12.472Z,29.56
2023-03-29T10:39:16.542Z,30.06
2023-03-29T10:40:28.924Z,30.89
2023-03-29T10:41:36.497Z,30.18
2023-03-29T10:43:01.415Z,30.42
2023-03-29T10:44:05.824Z,31.51
2023-03-29T10:45:34.912Z,31.70
2023-03-29T10:46:48.337Z,30.47
2023-03-29T10:47:57.597Z,30.53
2023-03-29T10:49:16.140Z,30.50
2023-03-29T10:50:20.603Z,30.39
2023-03-29T10:51:28.025Z,30.81
2023-03-29T10:52:32.090Z,31.39
2023-03-29T10:53:39.004Z,30.68
2023-03-29T10:54:44.116Z,30.90
2023-03-29T10:56:01.024Z,31.58
2023-03-29T10:57:11.230Z,30.55
2023-03-29T10:58:53.691Z,31.05
2023-03-29T11:00:29.887Z,30.52
2023-03-29T11:02:05.345Z,30.08
2023-03-29T11:03:37.744Z,29.44
2023-03-29T11:05:13.753Z,29.46
2023-03-29T11:06:47.546Z,29.00
2023-03-29T11:08:15.017Z,28.85
2023-03-29T11:10:07.951Z,29.15
2023-03-29T11:12:15.538Z,29.36
2023-03-29T11:14:13.709Z,29.83
2023-03-29T11:16:01.922Z,29.87
2023-03-29T11:17:42.510Z,29.55
2023-03-29T11:19:50.588Z,29.15
2023-03-29T11:21:14.897Z,29.39
2023-03-29T11:23:03.939Z,29.53
2023-03-29T11:24:35.823Z,28.86
2023-03-29T11:26:22.648Z,27.99
2023-03-29T11:28:02.164Z,28.51
2023-03-29T11:30:03.566Z,28.58
2023-03-29T11:31:28.017Z,28.30
2023-03-29T11:33:06.419Z,28.57
2023-03-29T11:35:14.109Z,28.67
2023-03-29T11:36:57.340Z,29.24
2023-03-29T11:38:44.017Z,28.57
2023-03-29T11:40:00.634Z,28.15
2023-03-29T11:41:37.380Z,27.99
2023-03-29T11:43:03.254Z,28.12
2023-03-29T11:44:15.864Z,28.24
2023-03-29T11:45:48.497Z,27.42
2023-03-29T11:47:30.219Z,27.35
2023-03-29T11:48:44.073Z,27.49
2023-03-29T11:49:58.668Z,27.29
2023-03-29T11:51:13.296Z,27.57
2023-03-29T11:52:27.725Z,28.40
2023-03-29T11:53:49.295Z,28.12
2023-03-29T11:55:18.233Z,27.67
2023-03-29T11:57:08.611Z,27.13
2023-03-29T11:58:38.715Z,27.55
2023-03-29T11:59:59.322Z,27.41
2023-03-29T12:01:33.588Z,27.22
2023-03-29T12:02:44.818Z,26.64
2023-03-29T12:03:59.419Z,26.80
2023-03-29T12:05:28.381Z,27.95
2023-03-29T12:06:53.258Z,27.81
2023-03-29T12:08:32.401Z,27.38
2023-03-29T12:09:50.148Z,28.00
2023-03-29T12:11:34.181Z,27.30
2023-03-29T12:13:04.562Z,27.04
2023-03-29T12:14:29.790Z,27.76
2023-03-29T12:16:13.874Z,27.58
2023-03-29T12:17:29.251Z,27.06
2023-03-29T12:18:47.954Z,27.44
2023-03-29T12:20:27.135Z,27.16
2023-03-29T12:21:34.820Z,27.06
2023-03-29T12:22:40.069Z,27.51
2023-03-29T12:23:49.071Z,27.70
2023-03-29T12:24:58.531Z,27.85
2023-03-29T12:26:29.876Z,27.38
2023-03-29T12:27:55.415Z,27.02
2023-03-29T12:29:58.669Z,27.28
2023-03-29T12:31:21.466Z,27.36
2023-03-29T12:33:16.102Z,27.62
2023-03-29T12:34:38.031Z,28.10
2023-03-29T12:36:29.475Z,27.92
2023-03-29T12:38:15.307Z,27.28
2023-03-29T12:39:21.767Z,27.44
2023-03-29T12:40:44.467Z,27.83
2023-03-29T12:41:53.689Z,27.84
2023-03-29T12:43:07.628Z,28.13
2023-03-29T12:44:23.806Z,27.83
2023-03-29T12:45:48.846Z,27.99
2023-03-29T12:47:00.681Z,28.24
2023-03-29T12:48:12.462Z,28.05
2023-03-29T12:49:33.005Z,27.73
2023-03-29T12:51:01.376Z,27.45
2023-03-29T12:52:27.482Z,27.05
2023-03-29T12:53:42.380Z,27.00
2023-03-29T12:54:56.349Z,27.58
2023-03-29T12:56:03.852Z,27.31
2023-03-29T12:57:44.176Z,27.59
2023-03-29T12:58:59.541Z,28.12
2023-03-29T13:00:18.081Z,28.38
2023-03-29T13:01:38.629Z,28.15
2023-03-29T13:02:49.481Z,28.41
2023-03-29T13:04:25.527Z,28.05
2023-03-29T13:05:37.004Z,27.50
2023-03-29T13:07:03.524Z,27.34
2023-03-29T13:08:33.571Z,27.38
2023-03-29T13:10:10.653Z,27.82
2023-03-29T13:11:53.869Z,27.81
2023-03-29T13:13:18.458Z,27.03
2023-03-29T13:14:32.845Z,27.57
2023-03-29T13:15:54.801Z,27.35
2023-03-29T13:17:35.705Z,27.41
2023-03-29T13:19:03.876Z,27.71
2023-03-29T13:20:45.775Z,27.62
2023-03-29T13:22:44.273Z,27.75
2023-03-29T13:24:23.058Z,27.86
2023-03-29T13:25:38.930Z,28.58
2023-03-29T13:27:17.005Z,28.11
2023-03-29T13:28:25.584Z,28.26
2023-03-29T13:30:24.878Z,27.87
2023-03-29T13:32:32.225Z,27.74
2023-03-29T13:34:34.085Z,27.71
2023-03-29T13:36:00.504Z,27.84
2023-03-29T13:37:58.194Z,27.66
2023-03-29T13:39:07.815Z,27.34
2023-03-29T13:40:30.961Z,27.61
2023-03-29T13:41:40.932Z,27.64
2023-03-29T13:43:37.789Z,28.05
2023-03-29T13:44:59.100Z,27.58
2023-03-29T13:46:37.941Z,27.61
2023-03-29T13:47:54.862Z,27.90
2023-03-29T13:49:35.985Z,27.88
2023-03-29T13:50:53.423Z,28.07
2023-03-29T13:52:36.134Z,28.21
2023-03-29T13:54:14.124Z,28.48
2023-03-29T13:55:35.527Z,28.75
2023-03-29T13:57:16.500Z,28.19
2023-03-29T13:58:36.426Z,28.29
2023-03-29T14:00:21.529Z,28.60
2023-03-29T14:01:47.016Z,28.71
2023-03-29T14:03:30.074Z,28.77
2023-03-29T14:05:10.467Z,28.53
2023-03-29T14:06:45.188Z,28.26
2023-03-29T14:08:26.576Z,27.91
2023-03-29T14:09:52.990Z,28.07
2023-03-29T14:11:04.204Z,28.60
2023-03-29T14:12:16.138Z,28.37
2023-03-29T14:13:28.501Z,27.97
2023-03-29T14:14:51.704Z,28.22
2023-03-29T14:16:16.594Z,28.34
2023-03-29T14:17:26.415Z,27.91
2023-03-29T14:18:45.072Z,28.09
2023-03-29T14:19:57.782Z,27.70
2023-03-29T14:21:03.458Z,28.14
2023-03-29T14:22:19.009Z,28.31
2023-03-29T14:23:36.829Z,28.40
2023-03-29T14:24:51.943Z,28.38
2023-03-29T14:26:04.515Z,28.41
2023-03-29T14:27:14.379Z,28.53
2023-03-29T14:28:26.614Z,28.61
2023-03-29T14:29:35.825Z,28.57
2023-03-29T14:30:49.875Z,28.37
2023-03-29T14:31:59.927Z,28.58
2023-03-29T14:33:06.836Z,28.88
2023-03-29T14:34:28.015Z,29.22
2023-03-29T14:35:33.651Z,29.24
2023-03-29T14:37:02.893Z,29.09
2023-03-29T14:38:14.384Z,29.39
2023-03-29T14:39:24.752Z,29.31
2023-03-29T14:40:35.854Z,29.19
2023-03-29T14:41:54.955Z,29.27
2023-03-29T14:43:08.691Z,29.55
2023-03-29T14:44:16.903Z,29.40
2023-03-29T14:45:27.311Z,29.32
2023-03-29T14:46:39.242Z,29.46
2023-03-29T14:48:00.770Z,29.32
2023-03-29T14:49:20.317Z,29.83
2023-03-29T14:50:31.932Z,29.51
2023-03-29T14:51:52.939Z,29.74
2023-03-29T14:53:04.059Z,30.04
2023-03-29T14:54:24.515Z,30.10
2023-03-29T14:55:28.461Z,29.87
2023-03-29T14:56:34.136Z,30.22
2023-03-29T14:57:44.200Z,30.23
2023-03-29T14:58:56.782Z,30.49
2023-03-29T15:00:17.395Z,30.27
2023-03-29T15:01:24.269Z,30.46
2023-03-29T15:02:36.266Z,30.61
2023-03-29T15:04:09.503Z,30.61
2023-03-29T15:05:51.733Z,30.90
2023-03-29T15:06:59.186Z,30.99
2023-03-29T15:08:08.971Z,30.93
2023-03-29T15:09:24.953Z,31.07
2023-03-29T15:10:40.536Z,31.26
2023-03-29T15:11:57.270Z,31.28
2023-03-29T15:13:07.014Z,31.50
2023-03-29T15:14:20.587Z,31.94
2023-03-29T15:15:32.541Z,32.33
2023-03-29T15:16:48.424Z,32.08
2023-03-29T15:17:57.152Z,32.12
2023-03-29T15:19:05.612Z,32.16
2023-03-29T15:20:30.022Z,32.38
2023-03-29T15:21:36.249Z,32.01
2023-03-29T15:22:55.112Z,32.53
2023-03-29T15:24:05.381Z,32.37
2023-03-29T15:25:23.018Z,32.54
2023-03-29T15:26:43.898Z,32.97
2023-03-29T15:28:01.984Z,32.70
2023-03-29T15:29:24.106Z,32.51
2023-03-29T15:30:39.705Z,32.51
2023-03-29T15:32:11.021Z,32.18
2023-03-29T15:33:22.270Z,32.80
2023-03-29T15:34:34.416Z,32.60
2023-03-29T15:35:39.598Z,32.70
2023-03-29T15:36:46.554Z,32.71
2023-03-29T15:37:53.603Z,32.47
2023-03-29T15:39:01.556Z,32.55
2023-03-29T15:40:09.883Z,32.60
2023-03-29T15:41:20.190Z,32.41
2023-03-29T15:42:26.290Z,32.60
2023-03-29T15:43:32.184Z,32.28
2023-03-29T15:44:43.919Z,32.29
2023-03-29T15:45:48.626Z,32.56
2023-03-29T15:47:04.058Z,32.62
2023-03-29T15:48:23.413Z,32.32
2023-03-29T15:49:39.297Z,32.14
2023-03-29T15:50:50.295Z,32.37
2023-03-29T15:52:02.924Z,32.54
2023-03-29T15:53:15.613Z,32.30
2023-03-29T15:54:29.340Z,32.10
2023-03-29T15:55:33.605Z,32.46
2023-03-29T15:57:00.437Z,32.34